KDUA

Durant Regional - Eaker Field Airport

Durant, Oklahoma, USA
METAR KDUA 211435Z AUTO 02005KT 7SM BKN006 22/19 A3008 RMK AO2
Observed Flight Rules
May-21 @ 14:35 UTC (20 minutes ago) Instrument Flight Rules
Wind Visibility Clouds
20° at 5 knots 7 miles
  • Broken at 600' AGL
Temperatures Readings
Current 22°C / 72°F
Dewpoint 19°C / 66°F
Humidity 83%
Altimeter 30.08" Hg
Pressure 1019 hPa
Elevation 213
METAR KDUA 211435Z AUTO 02005KT 7SM BKN006 22/19 A3008 RMK AO2
Observed Flight Rules
May-21 @ 14:35 UTC
(20 minutes ago)
IFR
Wind Visibility
20° at 5 knots 7 miles
Clouds
  • Broken at 600' AGL
Temperature Dewpoint
22°C / 72°F 19°C / 66°F
Humidity Altimeter Pressure
83% 30.08" Hg 1019 hPa